DataTemp.
Ø
Temp.
Max
Temp.
Min
UmiditàPressionePioggiaVento
Ø
Vento
dir. Ø
Vento
Max
Indice UV
Max
26.01.2021 00:00-1.0°C-0.9°C-1.0°C44.8%1007.0hPa0.0mm2.3km/hSSW5.8km/h0uvi
26.01.2021 00:05-1.0°C-0.9°C-1.0°C44.6%1007.0hPa0.0mm3.1km/hSSW7.9km/h0uvi
26.01.2021 00:10-0.9°C-0.9°C-0.9°C44.0%1007.0hPa0.0mm2.6km/hWSW7.9km/h0uvi
26.01.2021 00:15-0.9°C-0.9°C-0.9°C44.0%1007.0hPa0.0mm4.2km/hSW6.5km/h0uvi
26.01.2021 00:20-0.9°C-0.9°C-0.9°C44.0%1007.0hPa0.0mm2.8km/hWSW5.8km/h0uvi
26.01.2021 00:25-0.9°C-0.9°C-0.9°C44.0%1007.0hPa0.0mm3.2km/hWSW5.8km/h0uvi
26.01.2021 00:30-0.8°C-0.8°C-0.9°C44.0%1007.0hPa0.0mm3.6km/hSSW5.0km/h0uvi
26.01.2021 00:35-0.8°C-0.8°C-0.8°C44.0%1007.0hPa0.0mm3.4km/hENE8.6km/h0uvi
26.01.2021 00:40-0.8°C-0.7°C-0.8°C43.8%1007.0hPa0.0mm4.3km/hSSW9.7km/h0uvi
26.01.2021 00:45-0.6°C-0.5°C-0.7°C43.0%1007.0hPa0.0mm4.8km/hSSE7.2km/h0uvi
26.01.2021 00:50-0.5°C-0.5°C-0.5°C43.8%1007.0hPa0.0mm1.6km/hWSW5.4km/h0uvi
26.01.2021 00:55-0.5°C-0.5°C-0.6°C43.2%1007.0hPa0.0mm3.7km/hSSW5.8km/h0uvi
26.01.2021 01:00-0.6°C-0.6°C-0.6°C43.0%1007.6hPa0.0mm4.3km/hSSW5.8km/h0uvi
26.01.2021 01:05-0.6°C-0.6°C-0.6°C43.0%1008.0hPa0.0mm5.7km/hSSW11.9km/h0uvi
26.01.2021 01:10-0.7°C-0.7°C-0.8°C44.0%1008.0hPa0.0mm6.1km/hSSW7.9km/h0uvi
26.01.2021 01:15-0.7°C-0.7°C-0.7°C43.8%1008.7hPa0.0mm4.2km/hWSW8.6km/h0uvi
26.01.2021 01:20-0.7°C-0.7°C-0.7°C43.8%1009.0hPa0.0mm4.3km/hWSW6.1km/h0uvi
26.01.2021 01:25-0.8°C-0.7°C-0.8°C44.0%1009.0hPa0.0mm1.2km/hWSW4.3km/h0uvi
26.01.2021 01:30-0.9°C-0.9°C-0.9°C44.0%1008.4hPa0.0mm1.2km/hWSW6.1km/h0uvi
26.01.2021 01:35-1.0°C-1.0°C-1.0°C44.0%1008.0hPa0.0mm3.5km/hWSW6.8km/h0uvi
26.01.2021 01:40-1.0°C-1.0°C-1.0°C44.0%1008.0hPa0.0mm2.9km/hSSW5.8km/h0uvi
26.01.2021 01:45-1.0°C-1.0°C-1.0°C44.0%1008.0hPa0.0mm2.6km/hSSW4.7km/h0uvi
26.01.2021 01:50-1.1°C-1.0°C-1.1°C44.4%1008.0hPa0.0mm2.0km/hWNW6.5km/h0uvi
26.01.2021 01:55-1.2°C-1.2°C-1.3°C45.0%1008.0hPa0.0mm0.8km/hWSW4.3km/h0uvi
26.01.2021 02:00-1.4°C-1.3°C-1.4°C45.0%1008.0hPa0.0mm1.8km/hWSW4.7km/h0uvi
26.01.2021 02:05-1.4°C-1.4°C-1.6°C45.0%1008.0hPa0.0mm4.6km/hSSW9.7km/h0uvi
26.01.2021 02:10-1.7°C-1.6°C-1.8°C45.0%1008.0hPa0.0mm6.2km/hSSW7.6km/h0uvi
26.01.2021 02:15-1.6°C-1.6°C-1.7°C45.0%1008.0hPa0.0mm5.4km/hSSW10.1km/h0uvi
26.01.2021 02:20-1.5°C-1.5°C-1.5°C45.0%1008.0hPa0.0mm6.5km/hSSW9.0km/h0uvi
26.01.2021 02:25-1.5°C-1.4°C-1.5°C45.0%1008.0hPa0.0mm2.4km/hSSW5.4km/h0uvi
26.01.2021 02:30-1.4°C-1.4°C-1.4°C44.7%1008.0hPa0.0mm3.8km/hSSW10.1km/h0uvi
26.01.2021 02:35-1.4°C-1.4°C-1.4°C44.8%1008.0hPa0.0mm2.8km/hWSW9.7km/h0uvi
26.01.2021 02:40-1.4°C-1.4°C-1.4°C44.6%1008.0hPa0.0mm3.7km/hSSW9.7km/h0uvi
26.01.2021 02:45-1.4°C-1.3°C-1.4°C44.0%1008.5hPa0.0mm5.2km/hSSW9.0km/h0uvi
26.01.2021 02:50-1.4°C-1.3°C-1.4°C44.0%1009.0hPa0.0mm0.5km/hSSW4.0km/h0uvi
26.01.2021 02:55-1.6°C-1.5°C-1.6°C44.0%1009.0hPa0.0mm1.2km/hWSW3.2km/h0uvi
26.01.2021 03:00-1.7°C-1.6°C-1.8°C44.8%1009.7hPa0.0mm0.3km/hWSW1.8km/h0uvi
26.01.2021 03:05-2.0°C-1.9°C-2.2°C45.0%1010.0hPa0.0mm3.0km/hSSE4.7km/h0uvi
26.01.2021 03:10-2.4°C-2.3°C-2.6°C45.0%1010.0hPa0.0mm2.4km/hSSW4.3km/h0uvi
26.01.2021 03:15-2.6°C-2.6°C-2.7°C45.5%1010.0hPa0.0mm0.9km/hWSW3.2km/h0uvi
26.01.2021 03:20-2.8°C-2.8°C-2.8°C46.0%1010.0hPa0.0mm0.8km/hSSW2.5km/h0uvi
26.01.2021 03:25-3.0°C-2.9°C-3.0°C47.2%1010.0hPa0.0mm2.6km/hSE3.2km/h0uvi
26.01.2021 03:30-3.1°C-3.0°C-3.2°C48.2%1010.0hPa0.0mm2.2km/hS3.2km/h0uvi
26.01.2021 03:35-3.2°C-3.2°C-3.3°C48.2%1010.0hPa0.0mm2.7km/hSSW3.2km/h0uvi
26.01.2021 03:40-3.3°C-3.3°C-3.3°C49.7%1010.0hPa0.0mm2.8km/hSSW4.3km/h0uvi
26.01.2021 03:45-3.4°C-3.4°C-3.5°C50.8%1010.0hPa0.0mm3.2km/hSSW4.3km/h0uvi
26.01.2021 03:50-3.5°C-3.5°C-3.5°C50.5%1010.0hPa0.0mm0.0km/hNW0.0km/h0uvi
26.01.2021 03:55-3.3°C-3.3°C-3.4°C51.8%1010.0hPa0.0mm3.0km/hS4.0km/h0uvi
26.01.2021 04:00-3.2°C-3.2°C-3.3°C52.0%1010.0hPa0.0mm2.0km/hSSE3.2km/h0uvi
26.01.2021 04:05-3.3°C-3.2°C-3.3°C51.6%1010.0hPa0.0mm0.0km/hWSW1.4km/h0uvi
26.01.2021 04:10-3.2°C-3.2°C-3.3°C50.4%1010.0hPa0.0mm4.8km/hSSW6.1km/h0uvi
26.01.2021 04:15-3.2°C-3.1°C-3.3°C50.3%1010.0hPa0.0mm3.5km/hSSW4.7km/h0uvi
26.01.2021 04:20-3.1°C-3.1°C-3.1°C50.3%1010.0hPa0.0mm0.3km/hSE3.6km/h0uvi
26.01.2021 04:25-3.2°C-3.2°C-3.2°C50.0%1010.0hPa0.0mm0.7km/hE2.5km/h0uvi
26.01.2021 04:30-3.3°C-3.3°C-3.4°C50.0%1010.0hPa0.0mm2.1km/hSE3.2km/h0uvi
26.01.2021 04:35-3.5°C-3.4°C-3.6°C49.6%1010.0hPa0.0mm1.8km/hSE2.2km/h0uvi
26.01.2021 04:40-3.7°C-3.6°C-3.7°C50.0%1010.0hPa0.0mm5.4km/hWSW4.3km/h0uvi
26.01.2021 04:45-3.7°C-3.6°C-3.7°C51.0%1010.0hPa0.0mm3.4km/hSSW4.3km/h0uvi
26.01.2021 04:50-3.7°C-3.7°C-3.7°C51.0%1010.0hPa0.0mm2.2km/hNE4.3km/h0uvi
26.01.2021 04:55-3.7°C-3.7°C-3.7°C52.0%1010.0hPa0.0mm1.1km/hSSW0.0km/h0uvi
26.01.2021 05:00-3.7°C-3.7°C-3.7°C52.0%1010.0hPa0.0mm0.0km/hSSW0.0km/h0uvi
26.01.2021 05:05-3.6°C-3.5°C-3.6°C52.7%1010.0hPa0.0mm1.3km/hSSE0.0km/h0uvi
26.01.2021 05:10-3.5°C-3.5°C-3.5°C52.8%1010.0hPa0.0mm2.3km/hSSW4.0km/h0uvi
26.01.2021 05:15-3.5°C-3.5°C-3.5°C52.0%1010.7hPa0.0mm3.0km/hSSW4.0km/h0uvi
26.01.2021 05:20-3.5°C-3.4°C-3.5°C52.0%1011.0hPa0.0mm0.9km/hSSW3.6km/h0uvi
26.01.2021 05:25-3.3°C-3.3°C-3.4°C52.0%1011.0hPa0.0mm0.0km/hWSW0.0km/h0uvi
26.01.2021 05:30-3.2°C-3.2°C-3.2°C51.3%1010.3hPa0.0mm3.0km/hS5.0km/h0uvi
26.01.2021 05:35-3.2°C-3.1°C-3.2°C50.0%1010.0hPa0.0mm3.2km/hSW5.4km/h0uvi
26.01.2021 05:40-3.1°C-3.1°C-3.1°C49.2%1010.0hPa0.0mm5.3km/hSSW5.4km/h0uvi
26.01.2021 05:45-3.3°C-3.1°C-3.3°C48.4%1010.7hPa0.0mm5.0km/hSSE5.0km/h0uvi
26.01.2021 05:50-3.4°C-3.3°C-3.5°C49.0%1011.0hPa0.0mm2.9km/hWNW4.3km/h0uvi
26.01.2021 05:55-3.5°C-3.5°C-3.5°C49.0%1011.0hPa0.0mm1.9km/hSSW3.6km/h0uvi
26.01.2021 06:00-3.5°C-3.4°C-3.5°C50.0%1011.0hPa0.0mm1.4km/hSSW4.0km/h0uvi
26.01.2021 06:05-3.3°C-3.3°C-3.4°C50.0%1011.0hPa0.0mm2.8km/hNE3.6km/h0uvi
26.01.2021 06:10-3.3°C-3.3°C-3.3°C50.0%1011.0hPa0.0mm3.8km/hNE4.7km/h0uvi
26.01.2021 06:15-3.2°C-3.2°C-3.3°C49.0%1011.0hPa0.0mm4.3km/hSSW4.7km/h0uvi
26.01.2021 06:20-3.3°C-3.2°C-3.3°C49.0%1011.0hPa0.0mm2.5km/hWSW3.6km/h0uvi
26.01.2021 06:25-3.2°C-3.2°C-3.2°C49.0%1011.0hPa0.0mm2.0km/hSSE2.5km/h0uvi
26.01.2021 06:30-3.2°C-3.2°C-3.3°C48.8%1011.0hPa0.0mm3.4km/hSSE4.0km/h0uvi
26.01.2021 06:35-3.3°C-3.3°C-3.3°C48.0%1011.0hPa0.0mm3.8km/hSSE5.0km/h0uvi
26.01.2021 06:40-3.3°C-3.3°C-3.3°C48.0%1011.0hPa0.0mm3.0km/hSSW4.3km/h0uvi
26.01.2021 06:45-3.3°C-3.3°C-3.3°C48.0%1011.7hPa0.0mm1.8km/hNE4.7km/h0uvi
26.01.2021 06:50-3.4°C-3.4°C-3.4°C48.0%1012.0hPa0.0mm2.0km/hSSW5.0km/h0uvi
26.01.2021 06:55-3.5°C-3.5°C-3.5°C48.0%1012.0hPa0.0mm2.0km/hENE3.6km/h0uvi
26.01.2021 07:00-3.6°C-3.5°C-3.7°C48.0%1012.0hPa0.0mm2.4km/hSSE5.4km/h0uvi
26.01.2021 07:05-3.8°C-3.7°C-3.8°C48.0%1012.0hPa0.0mm3.2km/hSSE5.4km/h0uvi
26.01.2021 07:10-3.9°C-3.8°C-3.9°C49.0%1012.0hPa0.0mm1.1km/hSSE5.4km/h0uvi
26.01.2021 07:15-3.8°C-3.7°C-3.8°C49.2%1011.6hPa0.0mm1.4km/hWSW2.5km/h0uvi
26.01.2021 07:20-3.7°C-3.7°C-3.7°C49.3%1011.0hPa0.0mm2.7km/hWSW4.7km/h0uvi
26.01.2021 07:25-3.6°C-3.5°C-3.6°C49.0%1011.0hPa0.0mm2.1km/hSSW5.8km/h0uvi
26.01.2021 07:30-3.3°C-3.2°C-3.4°C48.2%1011.7hPa0.0mm5.0km/hSW6.8km/h0uvi
26.01.2021 07:35-3.0°C-3.0°C-3.1°C48.0%1012.0hPa0.0mm2.1km/hNE2.2km/h0uvi
26.01.2021 07:40-2.8°C-2.7°C-2.9°C46.0%1012.0hPa0.0mm3.7km/hSSE6.8km/h0uvi
26.01.2021 07:45-2.8°C-2.7°C-2.8°C46.0%1012.0hPa0.0mm1.9km/hWSW4.0km/h0uvi
26.01.2021 07:50-2.7°C-2.7°C-2.7°C46.0%1012.0hPa0.0mm2.1km/hSSE4.0km/h0uvi
26.01.2021 07:55-2.4°C-2.4°C-2.5°C45.2%1012.0hPa0.0mm2.1km/hWSW5.4km/h0uvi
26.01.2021 08:00-2.3°C-2.3°C-2.3°C45.0%1012.7hPa0.0mm3.7km/hSSW9.4km/h0uvi
26.01.2021 08:05-2.2°C-2.2°C-2.3°C44.0%1013.0hPa0.0mm6.8km/hSSW11.9km/h0uvi
26.01.2021 08:10-2.1°C-2.0°C-2.2°C44.0%1013.0hPa0.0mm3.1km/hWSW6.5km/h0uvi
26.01.2021 08:15-1.9°C-1.9°C-2.0°C44.0%1013.0hPa0.0mm2.4km/hNW7.9km/h0uvi
26.01.2021 08:20-1.9°C-1.9°C-1.9°C44.0%1013.0hPa0.0mm1.8km/hWSW4.0km/h0uvi
26.01.2021 08:25-1.9°C-1.9°C-2.0°C44.0%1013.0hPa0.0mm1.1km/hNW4.0km/h0uvi
26.01.2021 08:30-2.0°C-1.9°C-2.0°C43.5%1013.7hPa0.0mm4.3km/hSSW6.5km/h0uvi
26.01.2021 08:35-1.9°C-1.9°C-1.9°C42.0%1014.0hPa0.0mm6.0km/hSSW10.1km/h0uvi
26.01.2021 08:40-1.8°C-1.7°C-1.9°C41.8%1014.0hPa0.0mm6.8km/hSSW10.1km/h0uvi
26.01.2021 08:45-1.7°C-1.6°C-1.7°C41.8%1014.0hPa0.0mm2.5km/hWNW5.4km/h0uvi
26.01.2021 08:50-1.7°C-1.7°C-1.7°C42.4%1014.0hPa0.0mm0.9km/hWNW5.8km/h0uvi
26.01.2021 08:55-1.8°C-1.8°C-1.8°C42.3%1014.0hPa0.0mm2.6km/hWSW5.8km/h0uvi
26.01.2021 09:00-1.9°C-1.9°C-1.9°C43.0%1014.0hPa0.0mm1.7km/hSSW4.3km/h0uvi
26.01.2021 09:05-1.9°C-1.9°C-1.9°C43.0%1014.0hPa0.0mm1.6km/hWSW4.0km/h0uvi
26.01.2021 09:10-1.9°C-1.8°C-1.9°C42.8%1014.0hPa0.0mm2.2km/hWSW6.1km/h0uvi
26.01.2021 09:15-1.9°C-1.8°C-2.0°C42.0%1014.0hPa0.0mm3.8km/hSSW5.0km/h0uvi
26.01.2021 09:20-2.1°C-2.0°C-2.1°C42.8%1014.0hPa0.0mm4.9km/hSSW6.8km/h0uvi
26.01.2021 09:25-1.9°C-1.9°C-2.0°C42.0%1014.0hPa0.0mm3.3km/hSSW6.1km/h0uvi
26.01.2021 09:30-1.8°C-1.8°C-1.9°C42.0%1014.0hPa0.0mm2.5km/hWSW4.3km/h0uvi
26.01.2021 09:35-1.8°C-1.7°C-1.8°C42.0%1014.0hPa0.0mm3.2km/hWSW7.9km/h0uvi
26.01.2021 09:40-1.8°C-1.8°C-1.8°C41.5%1014.0hPa0.0mm4.2km/hSSW7.6km/h0uvi
26.01.2021 09:45-1.9°C-1.8°C-1.9°C41.6%1013.3hPa0.0mm4.1km/hSSW5.4km/h0uvi
26.01.2021 09:50-1.8°C-1.7°C-1.8°C41.2%1013.0hPa0.0mm4.0km/hSSW6.1km/h0uvi
26.01.2021 09:55-1.6°C-1.6°C-1.7°C41.7%1013.0hPa0.0mm2.7km/hNW4.3km/h0uvi
26.01.2021 10:00-1.5°C-1.5°C-1.6°C41.3%1013.7hPa0.0mm3.8km/hWSW7.2km/h0uvi
26.01.2021 10:05-1.4°C-1.4°C-1.5°C41.8%1014.0hPa0.0mm3.2km/hWSW5.0km/h0uvi
26.01.2021 10:10-1.3°C-1.1°C-1.4°C42.0%1014.0hPa0.0mm2.0km/hWSW4.3km/h0uvi
26.01.2021 10:15-0.8°C-0.5°C-1.0°C42.0%1014.0hPa0.0mm2.6km/hWSW5.8km/h0uvi
26.01.2021 10:20-0.3°C-0.1°C-0.5°C41.7%1014.0hPa0.0mm3.1km/hWSW9.0km/h0uvi
26.01.2021 10:250.1°C0.3°C-0.1°C40.0%1014.0hPa0.0mm2.6km/hWSW6.1km/h0uvi
26.01.2021 10:300.5°C0.6°C0.4°C39.2%1013.2hPa0.0mm3.9km/hWSW5.8km/h0uvi
26.01.2021 10:350.6°C0.7°C0.6°C38.8%1013.0hPa0.0mm3.0km/hSSW7.6km/h0uvi
26.01.2021 10:400.9°C1.0°C0.7°C38.6%1013.0hPa0.0mm3.2km/hWSW6.5km/h0uvi
26.01.2021 10:451.2°C1.3°C1.2°C38.0%1013.8hPa0.0mm2.8km/hWSW5.4km/h0uvi
26.01.2021 10:501.4°C1.4°C1.3°C37.2%1014.0hPa0.0mm3.7km/hENE6.1km/h0uvi
26.01.2021 10:551.5°C1.6°C1.5°C36.2%1014.0hPa0.0mm3.6km/hSSW6.8km/h0uvi
26.01.2021 11:001.6°C1.7°C1.6°C36.0%1013.3hPa0.0mm3.6km/hWNW5.0km/h0uvi
26.01.2021 11:051.8°C1.8°C1.8°C35.0%1013.0hPa0.0mm3.6km/hWSW4.0km/h0uvi
26.01.2021 11:101.9°C2.0°C1.8°C35.0%1013.0hPa0.0mm2.3km/hNW4.0km/h0uvi
26.01.2021 11:152.1°C2.1°C2.1°C35.0%1013.6hPa0.0mm4.0km/hESE6.1km/h0uvi
26.01.2021 11:202.1°C2.2°C2.1°C34.2%1014.0hPa0.0mm3.5km/hNE5.8km/h0uvi
26.01.2021 11:252.3°C2.4°C2.3°C34.5%1014.0hPa0.0mm3.1km/hENE6.1km/h0uvi
26.01.2021 11:302.5°C2.6°C2.4°C34.0%1014.0hPa0.0mm4.2km/hWNW5.8km/h0uvi
26.01.2021 11:352.7°C2.8°C2.6°C34.0%1014.0hPa0.0mm3.1km/hNE4.7km/h0uvi
26.01.2021 11:402.8°C2.8°C2.8°C34.0%1014.0hPa0.0mm4.0km/hNE4.7km/h0uvi
26.01.2021 11:452.8°C2.8°C2.8°C34.0%1014.0hPa0.0mm4.3km/hNE6.8km/h0uvi
26.01.2021 11:502.8°C2.8°C2.8°C34.0%1014.0hPa0.0mm5.6km/hWNW6.1km/h0uvi
26.01.2021 11:552.9°C2.9°C2.9°C34.0%1014.0hPa0.0mm5.0km/hWNW7.2km/h0uvi
26.01.2021 12:003.0°C3.1°C2.9°C33.2%1014.0hPa0.0mm5.0km/hW7.2km/h0uvi
26.01.2021 12:053.3°C3.4°C3.2°C33.0%1014.0hPa0.0mm4.7km/hW3.2km/h0uvi
26.01.2021 12:103.6°C3.6°C3.5°C33.0%1014.0hPa0.0mm4.2km/hNW4.3km/h0uvi
26.01.2021 12:153.6°C3.6°C3.6°C33.0%1014.0hPa0.0mm4.5km/hNW6.5km/h0uvi
26.01.2021 12:203.7°C3.7°C3.6°C33.0%1014.0hPa0.0mm3.5km/hNW4.0km/h0uvi
26.01.2021 12:253.8°C3.9°C3.8°C33.0%1014.0hPa0.0mm3.3km/hNW6.8km/h0uvi
26.01.2021 12:304.0°C4.0°C3.9°C31.0%1014.0hPa0.0mm3.6km/hNE6.8km/h0uvi
26.01.2021 12:354.2°C4.3°C4.1°C30.8%1014.0hPa0.0mm2.9km/hS4.0km/h0uvi
26.01.2021 12:404.4°C4.4°C4.4°C31.0%1014.0hPa0.0mm2.5km/hNE0.0km/h0uvi
26.01.2021 12:454.5°C4.6°C4.4°C29.0%1014.0hPa0.0mm2.5km/hNE0.0km/h0uvi
26.01.2021 12:504.7°C4.7°C4.6°C29.0%1014.0hPa0.0mm2.4km/hNE3.6km/h0uvi
26.01.2021 12:554.7°C4.7°C4.7°C27.0%1014.0hPa0.0mm2.2km/hSSW3.6km/h0uvi
26.01.2021 13:004.6°C4.6°C4.5°C27.0%1014.0hPa0.0mm2.2km/hSSW3.6km/h0uvi
26.01.2021 13:054.7°C4.8°C4.6°C27.0%1014.0hPa0.0mm2.2km/hSSW3.6km/h0uvi
26.01.2021 13:105.0°C5.1°C4.8°C27.0%1014.0hPa0.0mm0uvi
26.01.2021 13:155.2°C5.2°C5.1°C27.0%1014.0hPa0.0mm0uvi
26.01.2021 13:205.4°C5.6°C5.2°C24.2%1014.0hPa0.0mm0uvi
26.01.2021 13:255.8°C5.8°C5.6°C24.3%1014.0hPa0.0mm0uvi
26.01.2021 13:305.5°C5.5°C5.5°C25.0%1013.3hPa0.0mm0uvi
26.01.2021 13:355.4°C5.4°C5.4°C25.0%1013.0hPa0.0mm0uvi
26.01.2021 13:405.5°C5.5°C5.4°C25.0%1013.0hPa0.0mm6.8km/hS1.8km/h0uvi
26.01.2021 13:455.5°C5.5°C5.5°C25.0%1013.0hPa0.0mm4.7km/hNW6.1km/h0uvi
26.01.2021 13:505.9°C6.0°C5.7°C24.0%1013.0hPa0.0mm5.4km/hNE10.1km/h0uvi
26.01.2021 13:556.1°C6.1°C6.0°C25.0%1013.0hPa0.0mm1.3km/hSSW3.2km/h0uvi
26.01.2021 14:006.1°C6.1°C6.1°C24.3%1013.0hPa0.0mm3.0km/hSSW6.8km/h0uvi
26.01.2021 14:056.3°C6.4°C6.2°C23.0%1013.0hPa0.0mm3.0km/hNW6.5km/h0uvi
26.01.2021 14:106.5°C6.5°C6.5°C23.0%1013.0hPa0.0mm7.6km/hNE12.2km/h0uvi
26.01.2021 14:156.5°C6.6°C6.5°C23.0%1013.0hPa0.0mm7.0km/hNE12.2km/h0uvi
26.01.2021 14:206.7°C6.7°C6.6°C23.0%1013.0hPa0.0mm3.6km/hNE9.0km/h0uvi
26.01.2021 14:256.8°C6.8°C6.7°C23.0%1013.0hPa0.0mm4.8km/hNE5.4km/h0uvi
26.01.2021 14:307.0°C7.2°C6.9°C22.2%1013.0hPa0.0mm1.1km/hSSW2.5km/h0uvi
26.01.2021 14:357.2°C7.2°C7.2°C22.0%1013.0hPa0.0mm0.0km/hSSW1.8km/h0uvi
26.01.2021 14:407.2°C7.2°C7.1°C22.0%1013.0hPa0.0mm0.0km/hSSW1.8km/h0uvi
26.01.2021 14:457.2°C7.3°C7.2°C22.0%1013.0hPa0.0mm1.5km/hSSW5.0km/h0uvi
26.01.2021 14:507.2°C7.2°C7.1°C22.0%1013.0hPa0.0mm1.9km/hSSE5.0km/h0uvi
26.01.2021 14:557.3°C7.3°C7.2°C22.0%1013.0hPa0.0mm1.1km/hSSE4.7km/h0uvi
26.01.2021 15:006.7°C6.8°C6.6°C23.0%1013.7hPa0.0mm1.4km/hSSW4.7km/h0uvi
26.01.2021 15:056.9°C6.9°C6.8°C23.0%1014.0hPa0.0mm0.0km/hSSW0.0km/h0uvi
26.01.2021 15:107.0°C7.0°C7.0°C22.0%1014.0hPa0.0mm0.0km/hSSW0.0km/h0uvi
26.01.2021 15:156.9°C7.0°C6.9°C22.8%1014.0hPa0.0mm0.0km/hSSW0.0km/h0uvi
26.01.2021 15:206.8°C6.9°C6.8°C23.0%1014.0hPa0.0mm0uvi
26.01.2021 15:256.7°C6.7°C6.6°C23.0%1014.0hPa0.0mm0uvi
26.01.2021 15:306.5°C6.5°C6.4°C23.0%1014.0hPa0.0mm0uvi
26.01.2021 15:356.5°C6.6°C6.5°C23.0%1014.0hPa0.0mm0uvi
26.01.2021 15:406.5°C6.6°C6.5°C23.0%1014.0hPa0.0mm0uvi
26.01.2021 15:456.5°C6.5°C6.4°C23.0%1014.0hPa0.0mm0uvi
26.01.2021 15:506.3°C6.4°C6.2°C23.0%1014.0hPa0.0mm0uvi
26.01.2021 15:556.1°C6.2°C6.1°C23.0%1014.0hPa0.0mm0uvi
26.01.2021 16:006.2°C6.3°C6.1°C23.0%1014.0hPa0.0mm0uvi
26.01.2021 16:056.2°C6.3°C5.9°C23.0%1014.0hPa0.0mm7.6km/hSSW7.9km/h0uvi
26.01.2021 16:105.3°C5.6°C5.1°C23.0%1014.0hPa0.0mm7.6km/hSSW7.9km/h0uvi
26.01.2021 16:154.9°C5.0°C4.8°C23.0%1014.0hPa0.0mm7.6km/hSSW7.9km/h0uvi
26.01.2021 16:205.5°C5.5°C5.4°C23.0%1014.0hPa0.0mm7.6km/hSSW7.9km/h0uvi
26.01.2021 16:255.5°C5.6°C5.3°C23.0%1014.0hPa0.0mm0uvi
26.01.2021 16:304.8°C4.9°C4.6°C23.0%1014.0hPa0.0mm0uvi
26.01.2021 16:354.2°C4.5°C4.0°C23.0%1014.0hPa0.0mm0uvi
26.01.2021 16:403.6°C3.6°C3.6°C24.0%1014.0hPa0.0mm0uvi
26.01.2021 16:453.2°C3.2°C3.1°C24.0%1014.0hPa0.0mm8.6km/hSSW13.0km/h0uvi
26.01.2021 16:502.9°C2.9°C2.9°C24.0%1014.0hPa0.0mm7.8km/hSSW13.0km/h0uvi
26.01.2021 16:552.9°C2.9°C2.8°C24.0%1014.0hPa0.0mm7.6km/hSSW11.9km/h0uvi
26.01.2021 17:003.0°C3.1°C3.0°C24.0%1014.0hPa0.0mm7.8km/hSSW11.9km/h0uvi
26.01.2021 17:052.9°C3.0°C2.8°C24.0%1014.0hPa0.0mm7.9km/hSSE9.0km/h0uvi
26.01.2021 17:102.6°C2.7°C2.5°C24.4%1014.0hPa0.0mm7.9km/hSSE8.6km/h0uvi
26.01.2021 17:152.5°C2.6°C2.4°C24.0%1014.0hPa0.0mm7.9km/hSSE8.6km/h0uvi
26.01.2021 17:202.5°C2.6°C2.4°C24.0%1014.0hPa0.0mm7.9km/hSSE8.6km/h0uvi
26.01.2021 17:252.4°C2.4°C2.4°C24.7%1014.0hPa0.0mm6.8km/hSSW4.3km/h0uvi
26.01.2021 17:302.4°C2.4°C2.4°C24.7%1014.0hPa0.0mm5.0km/hSSW6.8km/h0uvi
26.01.2021 17:352.3°C2.4°C2.1°C26.0%1014.0hPa0.0mm5.0km/hSSW6.8km/h0uvi
26.01.2021 17:402.1°C2.1°C2.1°C26.0%1014.0hPa0.0mm5.3km/hSSW6.8km/h0uvi
26.01.2021 17:452.0°C2.0°C2.0°C26.0%1014.0hPa0.0mm5.8km/hWSW2.2km/h0uvi
26.01.2021 17:501.9°C1.9°C1.9°C26.0%1014.0hPa0.0mm6.8km/hSSW7.6km/h0uvi
26.01.2021 17:552.2°C2.4°C2.0°C24.5%1014.0hPa0.0mm7.9km/hSSW7.6km/h0uvi
26.01.2021 18:002.8°C3.0°C2.6°C24.0%1014.0hPa0.0mm7.9km/hSSW7.6km/h0uvi
26.01.2021 18:053.0°C3.1°C2.9°C24.0%1014.0hPa0.0mm7.9km/hSSW7.6km/h0uvi
26.01.2021 18:102.8°C2.8°C2.7°C24.0%1014.0hPa0.0mm0uvi
26.01.2021 18:152.9°C2.9°C2.8°C24.0%1014.0hPa0.0mm0uvi
26.01.2021 18:202.7°C2.8°C2.7°C24.0%1014.0hPa0.0mm0uvi
26.01.2021 18:252.5°C2.6°C2.5°C24.0%1014.0hPa0.0mm0uvi
26.01.2021 18:302.5°C2.6°C2.4°C24.0%1014.0hPa0.0mm0uvi
26.01.2021 18:352.3°C2.4°C2.3°C24.0%1014.0hPa0.0mm0uvi
26.01.2021 18:402.3°C2.3°C2.3°C24.0%1014.0hPa0.0mm0uvi
26.01.2021 18:452.4°C2.4°C2.3°C24.0%1014.7hPa0.0mm0uvi
26.01.2021 18:502.2°C2.3°C2.1°C24.0%1015.0hPa0.0mm5.0km/hSSW5.0km/h0uvi
26.01.2021 18:552.1°C2.2°C2.1°C24.0%1015.0hPa0.0mm5.0km/hSSW5.0km/h0uvi
26.01.2021 19:002.0°C2.0°C2.0°C24.4%1015.0hPa0.0mm5.0km/hSSW5.0km/h0uvi
26.01.2021 19:051.7°C1.9°C1.6°C25.8%1015.0hPa0.0mm5.0km/hSSW5.0km/h0uvi
26.01.2021 19:101.7°C1.7°C1.7°C25.7%1015.0hPa0.0mm0uvi
26.01.2021 19:151.7°C1.7°C1.7°C26.0%1015.0hPa0.0mm0uvi
26.01.2021 19:201.6°C1.7°C1.6°C26.0%1015.0hPa0.0mm0.0km/hWSW2.5km/h0uvi
26.01.2021 19:251.6°C1.7°C1.6°C26.0%1015.0hPa0.0mm0.0km/hWSW2.5km/h0uvi
26.01.2021 19:301.7°C1.7°C1.6°C26.0%1015.0hPa0.0mm0.0km/hWSW2.5km/h0uvi
26.01.2021 19:351.6°C1.6°C1.6°C26.0%1015.0hPa0.0mm0.0km/hWSW2.5km/h0uvi
26.01.2021 19:401.6°C1.7°C1.6°C26.0%1015.0hPa0.0mm2.2km/hSSW2.5km/h0uvi
26.01.2021 19:451.6°C1.7°C1.5°C26.0%1015.0hPa0.0mm2.2km/hSSW2.5km/h0uvi
26.01.2021 19:501.3°C1.4°C1.2°C26.0%1015.0hPa0.0mm2.2km/hSSW2.5km/h0uvi
26.01.2021 19:551.1°C1.1°C1.1°C26.0%1015.0hPa0.0mm2.2km/hSSW2.5km/h0uvi
26.01.2021 20:001.1°C1.1°C1.1°C26.0%1015.0hPa0.0mm3.6km/hWSW2.5km/h0uvi
26.01.2021 20:051.0°C1.0°C0.9°C26.3%1015.0hPa0.0mm0.8km/hSSW2.5km/h0uvi
26.01.2021 20:100.9°C0.9°C0.9°C27.0%1015.0hPa0.0mm1.4km/hWNW7.6km/h0uvi
26.01.2021 20:150.9°C1.0°C0.9°C26.6%1015.0hPa0.0mm3.9km/hSSW5.4km/h0uvi
26.01.2021 20:200.8°C0.9°C0.8°C27.0%1015.0hPa0.0mm3.6km/hSSW2.2km/h0uvi
26.01.2021 20:250.9°C1.1°C0.8°C26.8%1015.0hPa0.0mm3.6km/hSSW2.2km/h0uvi
26.01.2021 20:301.1°C1.1°C1.1°C26.0%1015.0hPa0.0mm3.6km/hSSW2.2km/h0uvi
26.01.2021 20:351.0°C1.1°C1.0°C26.0%1015.0hPa0.0mm0uvi
26.01.2021 20:401.3°C1.3°C1.2°C26.0%1015.0hPa0.0mm0uvi
26.01.2021 20:451.3°C1.3°C1.2°C26.0%1015.0hPa0.0mm0uvi
26.01.2021 20:501.1°C1.2°C1.1°C26.0%1015.0hPa0.0mm0uvi
26.01.2021 20:551.1°C1.1°C1.1°C26.0%1015.0hPa0.0mm0uvi
26.01.2021 21:001.1°C1.1°C1.0°C26.0%1015.0hPa0.0mm0uvi
26.01.2021 21:051.0°C1.0°C0.9°C26.2%1015.0hPa0.0mm0uvi
26.01.2021 21:100.9°C1.0°C0.9°C26.5%1015.0hPa0.0mm0uvi
26.01.2021 21:150.8°C0.9°C0.7°C27.0%1015.6hPa0.0mm0uvi
26.01.2021 21:200.7°C0.7°C0.7°C27.0%1016.0hPa0.0mm0uvi
26.01.2021 21:250.6°C0.7°C0.6°C27.0%1016.0hPa0.0mm0uvi
26.01.2021 21:300.5°C0.5°C0.5°C27.0%1015.3hPa0.0mm0uvi
26.01.2021 21:350.5°C0.6°C0.5°C27.0%1015.0hPa0.0mm0uvi
26.01.2021 21:400.7°C0.7°C0.6°C27.0%1015.0hPa0.0mm3.2km/hSSE4.3km/h0uvi
26.01.2021 21:450.7°C0.7°C0.7°C27.0%1015.8hPa0.0mm4.5km/hWSW4.0km/h0uvi
26.01.2021 21:500.8°C0.8°C0.7°C27.0%1016.0hPa0.0mm4.7km/hWSW3.2km/h0uvi
26.01.2021 21:550.9°C1.0°C0.8°C26.8%1016.0hPa0.0mm6.3km/hSSW7.9km/h0uvi
26.01.2021 22:000.7°C0.7°C0.6°C27.0%1015.3hPa0.0mm5.5km/hSSW7.9km/h0uvi
26.01.2021 22:050.7°C0.8°C0.6°C27.0%1015.0hPa0.0mm3.8km/hESE4.3km/h0uvi
26.01.2021 22:100.9°C0.9°C0.9°C27.0%1015.0hPa0.0mm4.0km/hESE4.3km/h0uvi
26.01.2021 22:150.9°C0.9°C0.9°C27.0%1015.6hPa0.0mm4.0km/hESE4.3km/h0uvi
26.01.2021 22:200.8°C0.9°C0.8°C27.0%1016.0hPa0.0mm4.0km/hESE4.3km/h0uvi
26.01.2021 22:250.7°C0.7°C0.7°C27.0%1016.0hPa0.0mm0uvi
26.01.2021 22:300.8°C0.9°C0.7°C27.0%1016.0hPa0.0mm0uvi
26.01.2021 22:350.9°C0.9°C0.8°C27.0%1016.0hPa0.0mm0uvi
26.01.2021 22:400.8°C0.9°C0.7°C27.0%1016.0hPa0.0mm0uvi
26.01.2021 22:450.9°C0.9°C0.9°C27.0%1016.0hPa0.0mm0uvi
26.01.2021 22:500.9°C0.9°C0.9°C27.0%1016.0hPa0.0mm0uvi
26.01.2021 22:550.9°C0.9°C0.8°C27.0%1016.0hPa0.0mm3.6km/hSSW3.6km/h0uvi
26.01.2021 23:000.7°C0.7°C0.7°C27.0%1016.0hPa3.6km/hSSW3.6km/h
26.01.2021 23:100.7°C0.8°C0.5°C27.0%1016.0hPa
26.01.2021 23:150.8°C0.8°C0.7°C27.0%1016.0hPa
26.01.2021 23:200.7°C0.7°C0.7°C27.0%1016.0hPa5.7km/hSSW6.5km/h
26.01.2021 23:250.6°C0.6°C0.6°C27.0%1016.0hPa0.0mm4.2km/hWSW6.8km/h0uvi
26.01.2021 23:300.6°C0.6°C0.6°C27.0%1016.0hPa0.0mm1.8km/hNE1.8km/h0uvi
26.01.2021 23:350.7°C0.7°C0.6°C27.0%1016.0hPa0.0mm2.2km/hNE2.5km/h0uvi
26.01.2021 23:400.6°C0.6°C0.5°C27.0%1016.0hPa0.0mm2.2km/hSSE5.4km/h
26.01.2021 23:450.4°C0.5°C0.4°C27.0%1016.0hPa0.0mm3.4km/hSSE5.4km/h0uvi
26.01.2021 23:500.4°C0.4°C0.4°C27.0%1016.0hPa0.0mm3.6km/hNW2.2km/h0uvi
26.01.2021 23:550.4°C0.4°C0.4°C27.0%1016.0hPa0.0mm2.2km/hNW2.2km/h0uvi
27.01.2021 00:000.6°C0.6°C0.5°C27.0%1016.0hPa0.0mm3.3km/hWSW5.0km/h0uvi
27.01.2021 00:050.5°C0.6°C0.5°C27.0%1016.0hPa0.0mm4.1km/hSSW6.8km/h0uvi
27.01.2021 00:100.4°C0.4°C0.4°C27.0%1016.0hPa0.0mm3.2km/hSSW4.0km/h0uvi
27.01.2021 00:150.4°C0.4°C0.4°C27.0%1016.0hPa0.0mm3.0km/hNE5.4km/h0uvi
27.01.2021 00:200.5°C0.6°C0.4°C27.0%1016.0hPa0.0mm4.6km/hWSW5.0km/h0uvi
27.01.2021 00:250.6°C0.6°C0.6°C27.0%1016.0hPa0.0mm4.8km/hSSW6.1km/h0uvi
27.01.2021 00:300.6°C0.6°C0.6°C27.0%1016.0hPa0.0mm3.1km/hSSW4.3km/h0uvi
27.01.2021 00:350.5°C0.6°C0.5°C27.0%1016.0hPa0.0mm5.0km/hSSW6.8km/h0uvi
27.01.2021 00:400.3°C0.4°C0.3°C27.0%1016.0hPa0.0mm4.4km/hSSW5.4km/h0uvi
27.01.2021 00:450.1°C0.2°C0.1°C27.0%1016.0hPa0.0mm3.8km/hSSW6.1km/h0uvi
27.01.2021 00:500.3°C0.3°C0.2°C27.0%1016.0hPa0.0mm4.7km/hSSW5.0km/h0uvi
27.01.2021 00:550.3°C0.3°C0.3°C27.0%1016.0hPa0.0mm5.0km/hSSW5.8km/h0uvi
27.01.2021 01:000.2°C0.3°C0.2°C27.0%1016.0hPa0.0mm5.4km/hSSW5.8km/h0uvi
27.01.2021 01:050.2°C0.3°C0.2°C27.0%1016.0hPa0.0mm3.6km/hSSW5.8km/h0uvi
27.01.2021 01:100.3°C0.3°C0.3°C28.3%1016.0hPa0.0mm2.7km/hWSW4.7km/h0uvi
27.01.2021 01:150.3°C0.3°C0.2°C28.6%1016.0hPa0.0mm2.3km/hWNW5.0km/h0uvi
27.01.2021 01:200.3°C0.3°C0.3°C27.0%1016.0hPa0.0mm6.3km/hSSW5.0km/h0uvi
27.01.2021 01:250.3°C0.3°C0.3°C27.0%1016.0hPa0.0mm4.7km/hWSW8.6km/h0uvi
27.01.2021 01:300.3°C0.3°C0.3°C27.7%1016.0hPa0.0mm4.3km/hS8.6km/h0uvi
27.01.2021 01:350.3°C0.3°C0.3°C28.6%1016.0hPa0.0mm1.8km/hS2.5km/h0uvi
27.01.2021 01:400.2°C0.3°C0.2°C29.0%1016.0hPa0.0mm1.8km/hS2.5km/h0uvi
27.01.2021 01:450.3°C0.4°C0.2°C27.0%1016.0hPa0.0mm7.6km/hSSW9.0km/h0uvi
27.01.2021 01:500.3°C0.4°C0.3°C27.5%1016.0hPa0.0mm9.7km/hSSW5.8km/h0uvi
27.01.2021 01:550.3°C0.3°C0.2°C29.0%1016.0hPa0.0mm0.0km/hSSW0.0km/h0uvi
27.01.2021 02:000.0°C0.1°C-0.1°C29.0%1016.0hPa0.0mm4.1km/hSSW5.4km/h0uvi
27.01.2021 02:05-0.2°C-0.1°C-0.2°C29.0%1016.0hPa0.0mm3.6km/hSSW5.4km/h0uvi
27.01.2021 02:10-0.5°C-0.4°C-0.5°C29.0%1016.0hPa0.0mm3.6km/hSSW5.4km/h0uvi
27.01.2021 02:15-0.5°C-0.4°C-0.5°C29.0%1016.7hPa0.0mm3.1km/hSSW5.4km/h0uvi
27.01.2021 02:20-0.4°C-0.4°C-0.4°C29.0%1017.0hPa0.0mm3.2km/hSSW4.3km/h0uvi
27.01.2021 02:25-0.9°C-0.8°C-0.9°C29.0%1017.0hPa0.0mm2.5km/hWSW1.4km/h0uvi
27.01.2021 02:30-1.1°C-1.0°C-1.2°C30.2%1015.5hPa0.0mm3.6km/hSSE4.0km/h0uvi
27.01.2021 02:35-1.0°C-1.0°C-1.0°C32.0%1015.0hPa0.0mm4.7km/hSSE4.0km/h0uvi
27.01.2021 02:40-1.0°C-1.0°C-1.1°C32.0%1015.0hPa0.0mm0.6km/hWSW2.5km/h0uvi
27.01.2021 02:45-1.3°C-1.2°C-1.4°C32.3%1015.0hPa0.0mm1.4km/hSSE2.5km/h0uvi
27.01.2021 02:50-1.6°C-1.4°C-1.7°C34.0%1015.0hPa0.0mm3.9km/hSSW4.0km/h0uvi
27.01.2021 02:55-1.8°C-1.7°C-1.8°C35.0%1015.0hPa0.0mm3.4km/hSSW4.0km/h0uvi
27.01.2021 03:00-1.9°C-1.9°C-2.0°C35.6%1015.6hPa0.0mm3.2km/hSE3.2km/h0uvi
27.01.2021 03:05-2.0°C-2.0°C-2.0°C37.0%1016.0hPa0.0mm3.6km/hSSW3.2km/h0uvi
27.01.2021 03:10-2.0°C-2.0°C-2.0°C37.0%1016.0hPa0.0mm3.6km/hS4.3km/h0uvi
27.01.2021 03:15-2.0°C-2.0°C-2.1°C37.0%1015.4hPa0.0mm3.6km/hS4.3km/h0uvi
27.01.2021 03:20-2.1°C-2.1°C-2.1°C37.0%1015.0hPa0.0mm3.6km/hS4.3km/h0uvi
27.01.2021 03:25-2.2°C-2.2°C-2.3°C37.8%1015.0hPa0.0mm3.2km/hSSW5.8km/h0uvi
27.01.2021 03:30-2.3°C-2.3°C-2.4°C38.0%1015.7hPa0.0mm1.9km/hSSW4.3km/h0uvi
27.01.2021 03:35-2.3°C-2.3°C-2.4°C39.0%1016.0hPa0.0mm2.3km/hSSW3.2km/h0uvi
27.01.2021 03:40-2.3°C-2.3°C-2.4°C39.0%1016.0hPa0.0mm2.5km/hWSW1.8km/h0uvi
27.01.2021 03:45-2.5°C-2.4°C-2.5°C38.7%1016.0hPa0.0mm0.8km/hWSW2.2km/h0uvi
27.01.2021 03:50-2.5°C-2.5°C-2.5°C38.6%1016.0hPa0.0mm1.9km/hSSW4.3km/h0uvi
27.01.2021 03:55-2.6°C-2.6°C-2.6°C39.2%1016.0hPa0.0mm1.6km/hSSW4.3km/h0uvi
27.01.2021 04:00-2.8°C-2.7°C-2.8°C40.0%1016.0hPa0.0mm1.1km/hSSW3.2km/h0uvi
27.01.2021 04:05-2.8°C-2.8°C-2.8°C40.0%1016.0hPa0.0mm1.5km/hSSW2.2km/h0uvi
27.01.2021 04:10-2.8°C-2.8°C-2.9°C40.6%1016.0hPa0.0mm1.4km/hSSW2.2km/h0uvi
27.01.2021 04:15-3.0°C-3.0°C-3.0°C41.5%1016.0hPa0.0mm1.4km/hSSW2.2km/h0uvi
27.01.2021 04:20-3.0°C-3.0°C-3.1°C41.7%1016.0hPa0.0mm1.4km/hSSW2.2km/h0uvi
27.01.2021 04:25-3.1°C-3.1°C-3.1°C42.0%1016.0hPa0.0mm0.0km/hSSE1.4km/h0uvi
27.01.2021 04:30-3.1°C-3.1°C-3.1°C42.0%1016.0hPa0.0mm0.0km/hSSE1.4km/h0uvi
27.01.2021 04:35-3.2°C-3.2°C-3.2°C42.0%1016.0hPa0.0mm0.0km/hWSW0.0km/h0uvi
27.01.2021 04:40-3.2°C-3.2°C-3.3°C42.0%1016.0hPa0.0mm0.8km/hSSW3.2km/h0uvi
27.01.2021 04:45-3.4°C-3.4°C-3.5°C42.2%1016.0hPa0.0mm2.5km/hSSE3.2km/h0uvi
27.01.2021 04:50-3.5°C-3.5°C-3.5°C43.2%1016.0hPa0.0mm2.2km/hWSW3.2km/h0uvi
27.01.2021 04:55-3.4°C-3.3°C-3.4°C44.0%1016.0hPa0.0mm3.3km/hSSE3.6km/h0uvi
27.01.2021 05:00-3.3°C-3.3°C-3.3°C44.0%1016.0hPa0.0mm3.2km/hSSE3.2km/h0uvi
27.01.2021 05:05-3.3°C-3.3°C-3.3°C44.0%1016.0hPa0.0mm0.0km/hWNW0.0km/h0uvi
27.01.2021 05:10-3.3°C-3.3°C-3.3°C44.0%1016.0hPa0.0mm0.0km/hWNW0.0km/h0uvi
27.01.2021 05:15-3.2°C-3.2°C-3.3°C44.0%1015.3hPa0.0mm0.3km/hWSW1.8km/h0uvi
27.01.2021 05:20-3.2°C-3.2°C-3.2°C44.0%1015.0hPa0.0mm1.8km/hWSW3.2km/h0uvi
27.01.2021 05:25-3.3°C-3.2°C-3.3°C44.0%1015.0hPa0.0mm2.7km/hWSW4.0km/h0uvi
27.01.2021 05:30-3.3°C-3.3°C-3.3°C44.0%1015.8hPa0.0mm1.1km/hWSW2.2km/h0uvi
27.01.2021 05:35-3.3°C-3.2°C-3.4°C44.0%1016.0hPa0.0mm0.0km/hSSW3.6km/h0uvi
27.01.2021 05:40-3.1°C-3.1°C-3.2°C44.0%1016.0hPa0.0mm0.0km/hNE0.0km/h0uvi
27.01.2021 05:45-3.0°C-3.0°C-3.0°C44.0%1016.0hPa0.0mm0.9km/hSSW4.0km/h0uvi